Time;durP1;ratioP1;P1;durP2;ratioP2;P2;SDS_P1;SDS_P2;PMS_P1;PMS_P2;Temp;Humidity;BMP_temperature;BMP_pressure;BME280_temperature;BME280_humidity;BME280_pressure;Samples;Min_cycle;Max_cycle;Signal;HPM_P1;HPM_P2
2020/12/04 00:00:45;;;;;;;;;13.50;13.00;;;;;2.30;84.14;101361.22;3726544;37;20538;-63
2020/12/04 00:03:12;;;;;;;;;20.25;15.25;;;;;2.45;84.19;101385.97;3727945;38;20516;-62
2020/12/04 00:05:38;;;;;;;;;14.00;12.50;;;;;2.45;84.09;101391.31;3727188;37;20530;-63
2020/12/04 00:08:11;;;;;;;;;16.75;12.00;;;;;2.40;84.24;101385.47;3725812;38;20553;-63
2020/12/04 00:10:38;;;;;;;;;18.00;15.75;;;;;2.40;84.26;101385.47;3726097;37;20590;-64
2020/12/04 00:13:05;;;;;;;;;15.25;14.00;;;;;2.44;83.99;101400.31;3726112;37;20523;-64
2020/12/04 00:15:32;;;;;;;;;23.00;16.75;;;;;2.43;84.13;101386.09;3726127;38;20511;-62
2020/12/04 00:18:00;;;;;;;;;14.50;12.00;;;;;2.40;83.87;101383.63;3726136;37;20509;-64
2020/12/04 00:20:27;;;;;;;;;17.25;13.75;;;;;2.42;83.95;101388.88;3726086;37;20471;-63
2020/12/04 00:22:55;;;;;;;;;17.25;14.25;;;;;2.42;84.22;101373.69;3726209;37;20496;-63
2020/12/04 00:25:23;;;;;;;;;23.25;16.25;;;;;2.33;84.00;101367.19;3725812;38;20815;-62
2020/12/04 00:27:51;;;;;;;;;18.00;15.50;;;;;2.42;84.34;101387.06;3726922;37;20482;-63
2020/12/04 00:30:19;;;;;;;;;19.50;14.00;;;;;2.21;84.12;101346.72;3726302;38;20603;-63
2020/12/04 00:32:46;;;;;;;;;13.25;13.00;;;;;2.30;83.96;101367.41;3726369;37;20461;-62
2020/12/04 00:35:13;;;;;;;;;21.50;14.50;;;;;2.37;83.93;101365.16;3726277;38;20486;-64
2020/12/04 00:37:42;;;;;;;;;18.50;17.00;;;;;2.50;84.18;101373.13;3726264;38;20484;-62
2020/12/04 00:40:08;;;;;;;;;14.50;13.75;;;;;2.29;84.05;101347.00;3726197;37;20471;-62
2020/12/04 00:42:36;;;;;;;;;10.75;9.75;;;;;2.53;83.85;101379.13;3726522;38;20468;-62
2020/12/04 00:45:04;;;;;;;;;14.25;11.25;;;;;2.50;83.78;101374.00;3726532;37;20458;-63
2020/12/04 00:47:30;;;;;;;;;21.25;17.00;;;;;2.49;83.68;101382.97;3726162;38;20540;-64
2020/12/04 00:49:57;;;;;;;;;15.50;12.75;;;;;2.54;83.74;101387.97;3726395;37;20454;-62
2020/12/04 00:52:24;;;;;;;;;20.00;19.00;;;;;2.55;83.93;101379.00;3726419;38;20427;-63
2020/12/04 00:54:50;;;;;;;;;7.75;3.00;;;;;2.58;83.55;101374.28;3726398;38;20437;-62
2020/12/04 00:57:17;;;;;;;;;18.25;16.00;;;;;2.53;83.77;101379.13;3729318;37;20405;-64
2020/12/04 00:59:46;;;;;;;;;24.75;19.75;;;;;2.50;83.80;101381.16;3732942;38;20453;-62
2020/12/04 01:02:14;;;;;;;;;12.75;12.25;;;;;2.55;83.64;101370.97;3729085;38;20445;-61
2020/12/04 01:04:41;;;;;;;;;19.00;18.50;;;;;2.56;83.47;101370.88;3731378;37;20400;-63
2020/12/04 01:07:10;;;;;;;;;18.00;17.00;;;;;2.53;83.44;101373.78;3734492;37;20465;-64
2020/12/04 01:09:38;;;;;;;;;17.00;14.00;;;;;2.56;83.54;101360.19;3729958;37;20413;-63
2020/12/04 01:12:04;;;;;;;;;16.00;12.25;;;;;2.57;83.55;101363.72;3726069;37;20426;-64
2020/12/04 01:14:32;;;;;;;;;20.25;18.00;;;;;2.55;83.53;101368.31;3726207;38;20401;-64
2020/12/04 01:16:59;;;;;;;;;14.25;14.25;;;;;2.53;83.78;101351.53;3726002;37;20436;-63
2020/12/04 01:19:26;;;;;;;;;12.75;12.25;;;;;2.63;83.66;101347.19;3725555;37;20427;-63
2020/12/04 01:21:54;;;;;;;;;14.25;14.00;;;;;2.59;83.29;101343.06;3725844;37;20399;-62
2020/12/04 01:24:27;;;;;;;;;19.00;13.25;;;;;2.54;83.14;101346.09;3725576;37;20396;-63
2020/12/04 01:26:55;;;;;;;;;21.25;15.50;;;;;2.55;83.23;101354.97;3725928;38;20388;-63
2020/12/04 01:29:24;;;;;;;;;16.25;12.00;;;;;2.59;83.16;101356.44;3725351;37;20394;-63
2020/12/04 01:31:51;;;;;;;;;15.75;15.00;;;;;2.58;83.12;101349.38;3725904;38;20381;-62
2020/12/04 01:34:18;;;;;;;;;17.50;14.00;;;;;2.64;83.17;101354.25;3725890;38;20383;-63
2020/12/04 01:36:48;;;;;;;;;14.75;14.00;;;;;2.66;83.26;101344.31;3725878;37;20375;-62
2020/12/04 01:39:15;;;;;;;;;18.25;16.25;;;;;2.67;83.00;101348.69;3725926;37;20403;-63
2020/12/04 01:41:42;;;;;;;;;12.75;11.00;;;;;2.64;83.33;101340.88;3726014;37;20398;-64
2020/12/04 01:44:09;;;;;;;;;18.25;14.75;;;;;2.65;83.30;101335.44;3725871;37;20372;-63
2020/12/04 01:46:36;;;;;;;;;15.50;13.75;;;;;2.67;82.88;101328.16;3725480;37;20375;-63
2020/12/04 01:49:06;;;;;;;;;18.75;16.75;;;;;2.66;82.93;101325.59;3725883;37;20392;-63
2020/12/04 01:51:35;;;;;;;;;18.00;13.00;;;;;2.66;83.14;101330.94;3725497;37;20379;-63
2020/12/04 01:54:06;;;;;;;;;15.00;13.00;;;;;2.67;82.89;101314.78;3725649;37;20338;-63
2020/12/04 01:56:43;;;;;;;;;17.50;14.00;;;;;2.68;82.73;101321.00;3725715;38;20342;-63
2020/12/04 01:59:10;;;;;;;;;22.75;14.25;;;;;2.72;82.82;101322.47;3725479;37;20328;-62
2020/12/04 02:01:43;;;;;;;;;14.75;13.00;;;;;2.82;82.98;101333.31;3726012;38;20377;-64
2020/12/04 02:04:15;;;;;;;;;20.00;15.75;;;;;2.78;82.59;101322.00;3725931;38;20337;-62
2020/12/04 02:06:59;;;;;;;;;11.50;9.75;;;;;2.82;82.84;101326.16;3725402;37;20348;-63
2020/12/04 02:09:35;;;;;;;;;17.50;11.25;;;;;2.89;82.90;101331.91;3725603;37;20343;-62
2020/12/04 02:12:07;;;;;;;;;20.00;15.25;;;;;2.90;82.44;101330.94;3725501;38;20340;-62
2020/12/04 02:14:34;;;;;;;;;18.25;14.75;;;;;2.95;82.60;101326.09;3729260;38;20322;-62
2020/12/04 02:17:05;;;;;;;;;14.50;12.75;;;;;2.97;82.53;101311.63;3730590;37;20329;-62
2020/12/04 02:19:45;;;;;;;;;9.25;9.00;;;;;2.86;82.34;101290.22;3727316;37;20318;-63
2020/12/04 02:22:36;;;;;;;;;11.75;11.75;;;;;2.93;82.21;101302.16;3729884;38;20301;-64
2020/12/04 02:25:06;;;;;;;;;15.50;13.00;;;;;2.92;82.18;101302.25;3730728;38;20320;-61
2020/12/04 02:27:34;;;;;;;;;16.25;13.50;;;;;2.92;82.02;101299.59;3728438;37;20309;-61
2020/12/04 02:30:04;;;;;;;;;12.25;11.75;;;;;2.91;81.69;101298.75;3725747;37;20318;-62
2020/12/04 02:32:33;;;;;;;;;13.50;11.75;;;;;2.94;81.98;101308.34;3725863;38;20320;-64
2020/12/04 02:34:59;;;;;;;;;14.00;12.25;;;;;2.76;81.65;101272.31;3726873;38;20290;-62
2020/12/04 02:37:28;;;;;;;;;12.75;12.00;;;;;2.88;81.70;101295.44;3725890;37;20310;-61
2020/12/04 02:39:55;;;;;;;;;17.75;14.50;;;;;2.93;81.93;101299.47;3727279;38;20269;-62
2020/12/04 02:42:26;;;;;;;;;12.75;11.25;;;;;2.87;81.49;101275.88;3726054;37;20315;-63
2020/12/04 02:44:53;;;;;;;;;16.75;13.75;;;;;2.92;81.64;101288.88;3725447;37;20271;-64
2020/12/04 02:47:26;;;;;;;;;14.50;10.75;;;;;2.77;81.67;101280.22;3725731;38;20302;-63
2020/12/04 02:49:53;;;;;;;;;13.00;8.75;;;;;2.77;81.67;101293.56;3725442;38;20281;-62
2020/12/04 02:52:22;;;;;;;;;11.75;11.75;;;;;2.72;81.48;101298.41;3725685;37;20282;-63
2020/12/04 02:54:48;;;;;;;;;12.25;10.50;;;;;2.71;81.71;101296.72;3725836;37;20255;-62
2020/12/04 02:57:14;;;;;;;;;12.75;12.75;;;;;2.60;81.72;101304.69;3725864;37;20297;-64
2020/12/04 02:59:42;;;;;;;;;14.00;11.25;;;;;2.46;81.84;101289.69;3725872;37;20237;-62
2020/12/04 03:02:10;;;;;;;;;18.25;15.25;;;;;2.56;82.02;101304.06;3725427;37;20293;-62
2020/12/04 03:04:38;;;;;;;;;14.25;12.25;;;;;2.56;82.19;101298.72;3725443;37;20259;-62
2020/12/04 03:07:05;;;;;;;;;15.00;13.00;;;;;2.52;81.97;101280.38;3725862;37;20273;-62
2020/12/04 03:09:34;;;;;;;;;13.50;9.25;;;;;2.48;82.19;101301.13;3725705;37;20255;-62
2020/12/04 03:12:02;;;;;;;;;18.75;15.25;;;;;2.34;81.96;101277.22;3725862;37;20239;-63
2020/12/04 03:14:29;;;;;;;;;16.75;11.75;;;;;2.43;82.49;101295.25;3725962;37;20242;-61
2020/12/04 03:16:57;;;;;;;;;13.75;10.75;;;;;2.42;82.33;101301.56;3726563;37;20271;-62
2020/12/04 03:19:25;;;;;;;;;13.25;9.50;;;;;2.44;82.54;101288.09;3726608;37;20250;-62
2020/12/04 03:21:52;;;;;;;;;18.25;14.50;;;;;2.45;82.40;101295.16;3726211;37;20240;-63
2020/12/04 03:24:20;;;;;;;;;14.00;13.75;;;;;2.49;82.21;101292.13;3726321;38;20236;-63
2020/12/04 03:26:50;;;;;;;;;15.25;13.25;;;;;2.47;82.22;101296.75;3726212;38;20259;-62
2020/12/04 03:29:17;;;;;;;;;13.00;10.25;;;;;2.39;82.42;101290.25;3725578;37;20218;-64
2020/12/04 03:31:45;;;;;;;;;16.00;13.25;;;;;2.38;82.40;101291.22;3725468;38;20229;-63
2020/12/04 03:34:12;;;;;;;;;14.75;13.75;;;;;2.37;82.59;101282.34;3725691;37;20215;-63
2020/12/04 03:36:40;;;;;;;;;18.25;13.75;;;;;2.38;82.46;101299.22;3726006;37;20377;-64
2020/12/04 03:39:09;;;;;;;;;17.25;13.00;;;;;2.40;82.30;101290.13;3725922;37;20213;-62
2020/12/04 03:41:37;;;;;;;;;13.75;13.25;;;;;2.44;82.51;101280.06;3725787;37;20212;-63
2020/12/04 03:44:05;;;;;;;;;16.75;13.75;;;;;2.42;82.49;101287.34;3725234;38;20220;-63
2020/12/04 03:46:34;;;;;;;;;19.50;16.75;;;;;2.46;82.77;101294.19;3725561;37;20208;-62
2020/12/04 03:49:00;;;;;;;;;16.00;14.75;;;;;2.48;82.56;101298.44;3725845;37;20186;-62
2020/12/04 03:51:28;;;;;;;;;13.00;12.25;;;;;2.57;82.90;101294.25;3726145;38;20228;-62
2020/12/04 03:53:56;;;;;;;;;18.25;13.25;;;;;2.67;82.82;101304.09;3726288;38;20207;-62
2020/12/04 03:56:22;;;;;;;;;17.50;15.00;;;;;2.77;82.98;101295.41;3726751;37;20189;-64
2020/12/04 03:58:49;;;;;;;;;16.50;15.50;;;;;2.89;82.73;101305.16;3729109;38;20217;-61
2020/12/04 04:01:16;;;;;;;;;19.25;14.75;;;;;2.92;82.66;101295.09;3734287;38;20226;-62
2020/12/04 04:03:47;;;;;;;;;18.00;14.50;;;;;2.99;82.62;101301.69;3728367;37;20202;-63
2020/12/04 04:06:16;;;;;;;;;23.00;18.25;;;;;3.08;82.73;101289.44;3735474;37;20219;-63
2020/12/04 04:08:44;;;;;;;;;15.50;14.25;;;;;3.13;82.24;101313.12;3738138;37;20219;-62
2020/12/04 04:11:14;;;;;;;;;21.25;17.75;;;;;3.21;82.21;101316.06;3727451;38;20210;-64
2020/12/04 04:13:41;;;;;;;;;24.75;17.50;;;;;3.24;82.31;101311.34;3726036;37;20177;-62
2020/12/04 04:16:07;;;;;;;;;18.25;17.25;;;;;3.27;82.14;101311.09;3725979;38;20206;-63
2020/12/04 04:18:38;;;;;;;;;21.50;18.25;;;;;3.26;82.18;101289.81;3725879;37;20158;-62
2020/12/04 04:21:10;;;;;;;;;16.75;15.75;;;;;3.37;81.91;101308.56;3725683;37;20180;-62
2020/12/04 04:23:37;;;;;;;;;22.00;19.50;;;;;3.22;82.03;101294.53;3726042;38;20153;-63
2020/12/04 04:26:06;;;;;;;;;26.50;20.50;;;;;3.47;81.93;101314.91;3726026;37;20170;-64
2020/12/04 04:28:40;;;;;;;;;20.75;20.00;;;;;3.53;81.94;101314.44;3725780;38;20176;-63
2020/12/04 04:31:08;;;;;;;;;19.75;19.25;;;;;3.63;81.91;101311.91;3726209;38;20171;-63
2020/12/04 04:33:42;;;;;;;;;18.50;17.25;;;;;3.63;81.96;101310.06;3725858;37;20144;-63
2020/12/04 04:36:10;;;;;;;;;25.25;18.75;;;;;3.79;81.54;101322.22;3725945;37;20152;-63
2020/12/04 04:38:38;;;;;;;;;34.25;28.75;;;;;3.81;81.55;101325.63;3725849;37;20180;-63
2020/12/04 04:41:04;;;;;;;;;34.00;28.75;;;;;3.90;81.44;101324.91;3725777;37;20163;-64
2020/12/04 04:43:31;;;;;;;;;21.25;20.25;;;;;3.90;81.18;101323.06;3725810;38;20155;-62
2020/12/04 04:46:14;;;;;;;;;28.25;23.25;;;;;3.67;81.54;101291.91;3725810;37;20169;-62
2020/12/04 04:48:48;;;;;;;;;33.75;24.75;;;;;3.67;80.97;101276.69;3725853;38;20123;-62
2020/12/04 04:51:17;;;;;;;;;35.25;28.25;;;;;4.03;80.73;101330.12;3726389;37;20167;-69
2020/12/04 04:53:51;;;;;;;;;29.75;27.50;;;;;3.98;80.69;101320.66;3725800;37;20155;-62
2020/12/04 04:56:18;;;;;;;;;26.00;21.75;;;;;4.04;80.92;101319.31;3726074;37;20147;-62
2020/12/04 04:58:45;;;;;;;;;22.25;19.25;;;;;4.06;80.73;101325.37;3726097;38;20141;-62
2020/12/04 05:01:14;;;;;;;;;20.00;19.50;;;;;4.09;80.68;101324.28;3726092;38;20158;-62
2020/12/04 05:03:55;;;;;;;;;17.25;14.50;;;;;4.15;80.42;101321.97;3725914;38;20124;-62
2020/12/04 05:06:34;;;;;;;;;25.00;21.50;;;;;4.24;80.73;101329.25;3725844;37;20114;-62
2020/12/04 05:09:05;;;;;;;;;19.50;17.00;;;;;4.28;80.08;101322.66;3725925;37;20133;-62
2020/12/04 05:11:32;;;;;;;;;19.00;14.00;;;;;4.34;79.61;101329.34;3726489;38;20105;-62
2020/12/04 05:14:13;;;;;;;;;21.25;18.75;;;;;4.36;79.65;101326.53;3726602;37;20116;-63
2020/12/04 05:16:42;;;;;;;;;23.75;21.00;;;;;4.23;79.13;101316.81;3728625;37;20102;-63
2020/12/04 05:19:14;;;;;;;;;22.00;20.00;;;;;4.28;79.18;101333.38;3726558;37;20098;-64
2020/12/04 05:21:40;;;;;;;;;16.50;15.00;;;;;4.29;79.13;101343.13;3727622;38;20127;-62
2020/12/04 05:24:08;;;;;;;;;25.50;22.00;;;;;4.32;78.82;101340.19;3725993;37;20079;-64
2020/12/04 05:26:38;;;;;;;;;19.25;16.75;;;;;4.32;78.51;101334.84;3725877;37;20093;-63
2020/12/04 05:29:07;;;;;;;;;24.25;22.50;;;;;4.25;78.40;101332.78;3725664;38;20061;-63
2020/12/04 05:31:36;;;;;;;;;15.75;13.50;;;;;4.29;78.47;101335.09;3725609;38;20087;-62
2020/12/04 05:34:22;;;;;;;;;25.75;18.50;;;;;4.28;78.58;101332.53;3725552;37;20075;-63
2020/12/04 05:36:53;;;;;;;;;27.00;21.25;;;;;4.18;78.33;101326.19;3727925;38;20098;-64
2020/12/04 05:39:21;;;;;;;;;24.00;19.25;;;;;4.19;78.02;101322.53;3729144;37;20088;-62
2020/12/04 05:41:49;;;;;;;;;23.50;23.00;;;;;4.27;78.15;101354.94;3728282;38;20069;-64
2020/12/04 05:44:19;;;;;;;;;25.50;21.25;;;;;4.33;78.14;101359.81;3728605;37;20082;-63
2020/12/04 05:46:54;;;;;;;;;21.00;18.25;;;;;4.38;78.17;101364.78;3728267;37;20096;-62
2020/12/04 05:49:41;;;;;;;;;22.50;19.75;;;;;4.25;78.11;101338.13;3727349;38;20051;-62
2020/12/04 05:52:28;;;;;;;;;26.25;19.50;;;;;4.42;77.66;101363.56;3738203;37;20043;-62
2020/12/04 05:54:59;;;;;;;;;21.50;20.25;;;;;4.41;77.43;101362.72;3734077;37;20090;-64
2020/12/04 05:57:28;;;;;;;;;23.00;20.00;;;;;4.42;77.45;101364.41;3729932;37;20045;-62
2020/12/04 05:59:58;;;;;;;;;25.00;21.75;;;;;4.44;77.17;101364.28;3729124;37;20028;-65
2020/12/04 06:02:25;;;;;;;;;22.50;19.00;;;;;4.42;77.07;101355.53;3728470;37;20072;-64
2020/12/04 06:04:52;;;;;;;;;20.25;19.25;;;;;4.45;77.13;101360.66;3727635;37;20025;-64
2020/12/04 06:07:27;;;;;;;;;17.00;17.00;;;;;4.37;77.12;101355.91;3727300;38;20066;-63
2020/12/04 06:09:56;;;;;;;;;18.25;17.75;;;;;4.47;76.76;101362.22;3728382;37;20018;-64
2020/12/04 06:12:27;;;;;;;;;19.00;18.00;;;;;4.45;76.73;101357.97;3729640;38;20036;-62
2020/12/04 06:14:54;;;;;;;;;21.00;18.75;;;;;4.48;76.36;101368.44;3731965;37;20010;-63
2020/12/04 06:17:20;;;;;;;;;26.50;21.00;;;;;4.53;76.58;101361.72;3730214;37;20020;-63
2020/12/04 06:19:47;;;;;;;;;23.75;21.75;;;;;4.51;76.08;101360.16;3730076;37;20008;-62
2020/12/04 06:22:18;;;;;;;;;19.00;17.00;;;;;4.48;76.19;101361.25;3729230;38;20018;-65
2020/12/04 06:25:10;;;;;;;;;17.75;15.75;;;;;4.50;75.80;101356.63;3729164;37;20018;-65
2020/12/04 06:27:45;;;;;;;;;25.50;24.75;;;;;4.53;76.22;101360.88;3728257;37;20030;-64
2020/12/04 06:30:15;;;;;;;;;23.00;18.50;;;;;4.63;75.82;101359.16;3728716;38;19991;-65
2020/12/04 06:32:53;;;;;;;;;23.75;18.75;;;;;4.61;75.64;101355.75;3727763;38;20036;-65
2020/12/04 06:35:41;;;;;;;;;23.75;18.50;;;;;4.78;75.71;101376.63;3726695;37;20007;-63
2020/12/04 06:38:48;;;;;;;;;31.75;23.75;;;;;4.77;75.11;101358.00;3726411;37;20318;-63
2020/12/04 06:41:37;;;;;;;;;24.00;22.00;;;;;4.93;75.09;101374.53;3726621;37;19995;-64
2020/12/04 06:44:25;;;;;;;;;26.75;20.75;;;;;4.97;74.57;101390.22;3726334;37;20007;-63
2020/12/04 06:46:58;;;;;;;;;26.25;23.50;;;;;5.07;74.79;101386.78;3726642;37;19987;-64
2020/12/04 06:49:39;;;;;;;;;21.50;19.00;;;;;5.09;73.99;101384.84;3726647;37;19994;-65
2020/12/04 06:52:10;;;;;;;;;19.75;17.50;;;;;5.06;74.10;101382.41;3727299;37;19997;-64
2020/12/04 06:54:44;;;;;;;;;17.75;16.75;;;;;5.04;74.14;101379.84;3727216;37;19992;-64
2020/12/04 06:57:20;;;;;;;;;24.50;20.25;;;;;4.92;73.98;101349.53;3726873;38;19977;-63
2020/12/04 06:59:49;;;;;;;;;16.50;14.50;;;;;5.05;74.21;101376.19;3730791;38;19980;-66
2020/12/04 07:02:19;;;;;;;;;21.25;18.50;;;;;5.10;73.87;101370.44;3733193;37;19958;-65
2020/12/04 07:04:54;;;;;;;;;26.25;22.00;;;;;5.35;75.46;101377.25;3728695;37;19958;-74
2020/12/04 07:07:25;;;;;;;;;20.50;18.75;;;;;5.42;73.95;101363.19;3729374;38;19953;-63
2020/12/04 07:09:58;;;;;;;;;23.75;19.25;;;;;5.37;73.44;101362.72;3727599;37;19959;-64
2020/12/04 07:12:27;;;;;;;;;18.50;14.75;;;;;5.33;73.18;101372.00;3726064;38;19967;-66
2020/12/04 07:14:59;;;;;;;;;20.50;17.50;;;;;5.37;73.01;101368.09;3726130;38;19968;-65
2020/12/04 07:17:29;;;;;;;;;22.00;19.00;;;;;5.44;73.23;101380.00;3726030;38;19942;-66
2020/12/04 07:19:59;;;;;;;;;26.00;24.25;;;;;5.44;72.88;101374.66;3726535;37;19960;-67
2020/12/04 07:22:28;;;;;;;;;22.50;20.25;;;;;5.52;73.07;101380.22;3726533;38;19946;-65
2020/12/04 07:25:02;;;;;;;;;22.75;20.50;;;;;5.56;72.62;101373.59;3726130;38;19913;-64
2020/12/04 07:27:31;;;;;;;;;24.00;22.25;;;;;5.62;72.35;101367.69;3725908;38;19918;-64
2020/12/04 07:29:59;;;;;;;;;20.25;18.50;;;;;5.63;72.64;101352.44;3725786;37;19926;-62
2020/12/04 07:32:26;;;;;;;;;22.75;17.75;;;;;5.74;72.41;101360.41;3726050;38;19919;-64
2020/12/04 07:34:53;;;;;;;;;23.00;20.50;;;;;5.83;72.30;101356.06;3725987;38;19940;-64
2020/12/04 07:37:19;;;;;;;;;26.50;23.25;;;;;5.93;72.15;101365.91;3726292;37;19928;-65
2020/12/04 07:39:47;;;;;;;;;26.25;24.25;;;;;5.98;72.10;101366.38;3726236;37;19931;-64
2020/12/04 07:42:14;;;;;;;;;26.00;23.25;;;;;5.99;71.69;101361.84;3726034;38;19914;-64
2020/12/04 07:44:50;;;;;;;;;31.50;28.00;;;;;6.03;72.15;101344.47;3725914;38;19924;-64
2020/12/04 07:47:22;;;;;;;;;33.25;27.50;;;;;6.13;71.96;101366.00;3726392;38;19894;-64
2020/12/04 07:49:54;;;;;;;;;26.25;23.25;;;;;6.20;71.43;101351.91;3727514;37;19893;-65
2020/12/04 07:52:26;;;;;;;;;38.50;33.75;;;;;6.28;71.65;101368.16;3727878;37;19902;-63
2020/12/04 07:55:18;;;;;;;;;30.75;26.75;;;;;6.30;71.77;101357.28;3726769;37;19887;-65
2020/12/04 07:58:01;;;;;;;;;34.25;27.00;;;;;6.46;71.03;101364.81;3726336;38;19904;-62
2020/12/04 08:00:34;;;;;;;;;31.00;24.50;;;;;6.46;70.74;101368.38;3725762;37;20499;-61
2020/12/04 08:03:13;;;;;;;;;35.00;30.25;;;;;6.45;70.35;101366.66;3725788;38;20474;-63
2020/12/04 08:05:41;;;;;;;;;44.25;37.50;;;;;6.68;70.16;101378.06;3725101;38;20498;-64
2020/12/04 08:08:08;;;;;;;;;32.75;28.75;;;;;6.80;69.65;101363.47;3725670;37;20477;-63
2020/12/04 08:10:35;;;;;;;;;28.75;24.50;;;;;6.77;69.48;101366.44;3725673;37;20500;-62
2020/12/04 08:13:09;;;;;;;;;30.75;27.75;;;;;6.89;69.60;101370.69;3725903;37;20457;-62
2020/12/04 08:15:42;;;;;;;;;28.75;27.25;;;;;6.95;68.66;101375.53;3725609;37;20491;-62
2020/12/04 08:18:10;;;;;;;;;27.00;23.00;;;;;7.03;68.74;101373.97;3725665;37;20462;-62
2020/12/04 08:20:40;;;;;;;;;34.75;33.00;;;;;7.06;69.12;101377.25;3725891;37;20461;-64
2020/12/04 08:23:07;;;;;;;;;30.75;28.75;;;;;7.09;68.63;101376.97;3725740;37;20471;-62
2020/12/04 08:25:38;;;;;;;;;32.00;29.00;;;;;7.10;68.34;101377.81;3725616;37;20443;-63
2020/12/04 08:28:07;;;;;;;;;28.50;26.00;;;;;7.24;68.38;101372.00;3725612;37;20419;-62
2020/12/04 08:30:39;;;;;;;;;34.50;28.75;;;;;7.35;67.99;101377.22;3725514;37;20452;-65
2020/12/04 08:33:06;;;;;;;;;32.25;27.50;;;;;7.44;67.77;101370.13;3725865;37;20446;-63
2020/12/04 08:35:52;;;;;;;;;30.50;29.00;;;;;7.57;67.59;101363.44;3726800;37;20455;-62
2020/12/04 08:38:26;;;;;;;;;31.75;27.50;;;;;7.68;67.03;101366.97;3725872;38;20433;-61
2020/12/04 08:40:56;;;;;;;;;24.75;21.25;;;;;7.75;65.95;101344.69;3725837;37;20558;-62
2020/12/04 08:43:25;;;;;;;;;28.50;25.50;;;;;7.93;65.96;101353.69;3725952;38;20457;-64
2020/12/04 08:45:57;;;;;;;;;26.25;25.25;;;;;8.03;65.30;101358.22;3725772;37;20454;-63
2020/12/04 08:48:26;;;;;;;;;24.50;23.25;;;;;8.10;65.18;101348.53;3724722;37;20388;-62
2020/12/04 08:51:00;;;;;;;;;24.75;21.25;;;;;8.12;65.05;101333.91;3725190;37;20471;-63
2020/12/04 08:53:33;;;;;;;;;25.25;20.75;;;;;8.15;64.75;101346.25;3725123;38;20444;-63
2020/12/04 08:56:02;;;;;;;;;25.75;20.75;;;;;8.18;64.48;101335.16;3726125;38;20436;-61
2020/12/04 08:58:36;;;;;;;;;20.25;18.75;;;;;8.18;64.22;101333.31;3725340;38;20383;-63
2020/12/04 09:01:03;;;;;;;;;23.25;20.50;;;;;8.20;64.98;101331.31;3725774;37;20453;-60
2020/12/04 09:03:31;;;;;;;;;66.25;52.00;;;;;8.32;64.24;101334.63;3725633;37;20313;-62
2020/12/04 09:05:59;;;;;;;;;30.75;27.75;;;;;8.29;65.14;101330.44;3725683;38;20642;-63
2020/12/04 09:08:28;;;;;;;;;21.50;17.50;;;;;8.34;64.80;101326.44;3725730;38;20379;-63
2020/12/04 09:11:02;;;;;;;;;25.00;20.50;;;;;8.37;64.52;101313.50;3725864;38;20431;-63
2020/12/04 09:13:30;;;;;;;;;25.00;21.50;;;;;8.53;64.56;101313.69;3725374;37;20563;-63
2020/12/04 09:16:00;;;;;;;;;25.00;20.50;;;;;8.63;64.33;101329.81;3725383;37;20426;-61
2020/12/04 09:18:27;;;;;;;;;22.50;20.75;;;;;8.68;64.54;101323.97;3725079;37;20384;-63
2020/12/04 09:20:53;;;;;;;;;22.50;21.00;;;;;8.70;64.52;101317.41;3725562;38;20421;-62
2020/12/04 09:23:21;;;;;;;;;24.75;23.00;;;;;8.73;65.02;101322.50;3725788;37;20406;-63
2020/12/04 09:25:48;;;;;;;;;20.50;18.75;;;;;8.77;65.43;101318.50;3726392;37;20408;-62
2020/12/04 09:28:14;;;;;;;;;23.50;21.00;;;;;8.77;65.31;101314.94;3725765;38;20407;-63
2020/12/04 09:30:42;;;;;;;;;29.25;24.00;;;;;8.79;65.32;101310.25;3726024;38;20462;-61
2020/12/04 09:33:08;;;;;;;;;27.00;24.25;;;;;8.92;65.39;101310.69;3725571;38;20448;-63
2020/12/04 09:35:35;;;;;;;;;22.25;19.50;;;;;8.99;65.34;101317.16;3725784;37;20447;-62
2020/12/04 09:38:03;;;;;;;;;27.00;22.25;;;;;9.02;65.51;101305.22;3725583;37;20415;-61
2020/12/04 09:40:31;;;;;;;;;21.75;19.00;;;;;9.02;65.97;101299.81;3725428;37;20372;-61
2020/12/04 09:42:59;;;;;;;;;31.50;24.00;;;;;8.93;66.07;101304.28;3725583;37;20346;-62
2020/12/04 09:45:25;;;;;;;;;26.75;23.25;;;;;8.91;66.70;101304.44;3725634;38;20386;-62
2020/12/04 09:47:56;;;;;;;;;23.50;21.25;;;;;8.96;67.07;101295.88;3725532;38;20389;-62
2020/12/04 09:50:23;;;;;;;;;24.25;22.25;;;;;9.12;67.20;101297.87;3725636;38;20376;-62
2020/12/04 09:52:55;;;;;;;;;25.50;21.50;;;;;9.21;67.21;101291.53;3725566;37;20365;-62
2020/12/04 09:55:25;;;;;;;;;19.50;18.25;;;;;9.28;67.18;101288.06;3727014;38;20353;-63
2020/12/04 09:57:52;;;;;;;;;20.75;20.00;;;;;9.34;67.11;101291.97;3727529;38;20330;-62
2020/12/04 10:00:19;;;;;;;;;21.25;21.00;;;;;9.53;67.11;101288.19;3727619;38;20369;-62
2020/12/04 10:02:46;;;;;;;;;20.75;17.25;;;;;9.61;66.76;101282.84;3725939;37;20371;-62
2020/12/04 10:05:14;;;;;;;;;21.00;19.00;;;;;9.69;66.86;101298.28;3729272;37;20394;-65
2020/12/04 10:07:42;;;;;;;;;22.50;21.00;;;;;9.85;66.94;101290.25;3737058;38;20343;-63
2020/12/04 10:10:16;;;;;;;;;24.00;21.25;;;;;9.93;67.05;101287.56;3728110;38;20349;-64
2020/12/04 10:12:42;;;;;;;;;26.75;24.25;;;;;9.93;67.09;101283.00;3725670;37;20362;-64
2020/12/04 10:15:08;;;;;;;;;28.00;27.00;;;;;9.94;67.37;101282.00;3725663;37;20293;-64
2020/12/04 10:17:35;;;;;;;;;24.50;21.00;;;;;9.88;67.28;101285.34;3725760;38;20286;-64
2020/12/04 10:20:03;;;;;;;;;22.25;20.50;;;;;9.99;67.36;101281.53;3725795;37;20300;-63
2020/12/04 10:22:29;;;;;;;;;28.25;26.00;;;;;9.86;67.58;101282.00;3725841;37;20281;-64
2020/12/04 10:24:57;;;;;;;;;26.25;25.25;;;;;9.79;68.30;101280.94;3725745;37;20279;-63
2020/12/04 10:27:24;;;;;;;;;28.25;25.75;;;;;9.78;68.77;101276.53;3725649;38;20277;-64
2020/12/04 10:29:51;;;;;;;;;26.25;23.50;;;;;9.76;69.02;101275.00;3725632;38;20279;-63
2020/12/04 10:32:17;;;;;;;;;28.25;25.25;;;;;9.70;69.28;101281.06;3725787;37;20268;-63
2020/12/04 10:34:43;;;;;;;;;34.00;28.50;;;;;9.66;69.68;101285.94;3725719;38;20268;-63
2020/12/04 10:37:10;;;;;;;;;29.75;24.75;;;;;9.67;69.94;101286.78;3725928;37;20283;-63
2020/12/04 10:39:36;;;;;;;;;27.00;24.00;;;;;9.69;69.88;101288.31;3725966;38;20286;-60
2020/12/04 10:42:03;;;;;;;;;28.25;26.25;;;;;9.62;69.82;101281.84;3725758;37;20241;-64
2020/12/04 10:44:32;;;;;;;;;28.00;25.75;;;;;9.63;70.16;101265.47;3725641;38;20233;-62
2020/12/04 10:46:59;;;;;;;;;27.25;25.75;;;;;9.72;70.59;101266.38;3725937;37;20230;-64
2020/12/04 10:49:26;;;;;;;;;29.50;29.00;;;;;9.77;69.90;101272.13;3725901;37;20249;-62
2020/12/04 10:52:00;;;;;;;;;25.50;22.25;;;;;9.80;69.78;101265.56;3725428;38;21252;-62
2020/12/04 10:54:26;;;;;;;;;24.25;22.75;;;;;9.82;69.55;101267.09;3725259;38;21226;-63
2020/12/04 10:56:56;;;;;;;;;23.00;20.50;;;;;9.75;69.44;101248.97;3725845;37;20240;-63
2020/12/04 10:59:23;;;;;;;;;22.00;19.00;;;;;9.84;69.17;101265.09;3725623;37;21231;-62
2020/12/04 11:01:57;;;;;;;;;22.50;20.75;;;;;9.83;69.64;101267.94;3726250;37;21196;-64
2020/12/04 11:07:15;;;;;;;;;23.00;21.75;;;;;9.76;69.75;101264.19;3725958;38;21161;-61
2020/12/04 11:09:42;;;;;;;;;23.00;20.25;;;;;9.92;69.66;101264.25;3725603;38;21206;-62
2020/12/04 11:12:11;;;;;;;;;24.50;24.00;;;;;9.93;69.77;101268.63;3725840;37;21234;-63
2020/12/04 11:14:43;;;;;;;;;21.00;21.00;;;;;9.91;69.76;101268.81;3726127;38;21231;-62
2020/12/04 11:17:10;;;;;;;;;27.50;25.75;;;;;9.85;69.72;101265.94;3725868;37;21215;-61
2020/12/04 11:19:38;;;;;;;;;25.75;24.25;;;;;9.91;70.21;101274.22;3728061;38;21204;-62
2020/12/04 11:22:08;;;;;;;;;24.75;23.00;;;;;10.00;69.95;101276.97;3735966;37;21193;-63
2020/12/04 11:24:36;;;;;;;;;25.50;21.25;;;;;10.07;69.86;101280.72;3737453;37;21185;-64
2020/12/04 11:27:03;;;;;;;;;26.50;24.75;;;;;10.08;69.99;101277.84;3737682;37;21217;-63
2020/12/04 11:29:36;;;;;;;;;24.00;22.75;;;;;10.04;70.01;101276.47;3736669;38;21171;-62
2020/12/04 11:32:09;;;;;;;;;25.25;22.75;;;;;10.20;69.91;101270.31;3735340;37;21184;-63